Tropical Cyclones
[Index]
Main Index Home Page Stock Weather Photos Extreme Storms Discussion Storm News and Storm Chasing Reports Tropical Cyclones / Hurricanes / Typhoons Weather Data and Links Wild Fires / Bushfires Weather Observation Techniques Weather Picture Catalogue Tornado Pictures and Reports Stock Video Footage and DVDs for sale
Season 2008-2009 Tropical Cyclone HINA Track Map
Season 2008-2009 Summaries (Operational Data): [AU] [SIO] [SPAC] [SH]
<<- Previous TC | 2008-2009 Season | Next TC ->>

click for intensity scale information  Lat/long Grid: Show Hide

 Date Labels: Show Hide

Operational Tropical Cyclone Data : JTWC Advisories

Name: HINA
Number: 0916

21 Feb 2009 06:00 UTC to 26 Feb 2009 18:00 UTC

    date/time    lat    long     hPa   cat  kts
2009-02-21 06   12.6    77.3    1003         25          
2009-02-21 12   13.1    77.4    1001         25          
2009-02-21 18   14.6    77.8     997         30          
2009-02-22 00   15.0    78.0     995    1    35          
2009-02-22 06   16.0    78.4     987    1    45          
2009-02-22 12   16.8    78.6     980    2    55          
2009-02-22 18   17.6    78.7     980    2    55          
2009-02-23 00   18.5    78.6     980    2    55          
2009-02-23 06   18.7    77.7     982    2    50          
2009-02-23 12   19.5    77.9     985    1    45          
2009-02-23 18   19.5    77.8     990    1    45          
2009-02-24 00   19.5    76.6     997         30          
2009-02-24 06   20.0    75.7    1000         25          
2009-02-24 12   20.4    74.6    1000         25          
2009-02-24 18   20.7    72.9    1000         25          
2009-02-25 00   21.4    71.4    1000         25          
2009-02-25 06   22.0    69.8    1003         25          
2009-02-25 12   23.4    67.9    1000                     
2009-02-25 18   24.8    66.7    1000         26          
2009-02-26 00   25.8    65.8    1004         22          
2009-02-26 06   26.1    65.3    1004         22          
2009-02-26 12   26.8    64.4    1004         22          
2009-02-26 18   27.7    63.4    1004         22          
Winds are 10-min average.

Tropical cyclone tracks developed by Michael Bath using operational warnings and advisories and Google Maps.


[Australian Severe Weather index] [Copyright Notice] [Email Contacts] [Search This Site] [Privacy Policy]
Document: tropical_cyclone_hina.htm Updated: 28 May 2013